Time;durP1;ratioP1;P1;durP2;ratioP2;P2;SDS_P1;SDS_P2;PMS_P1;PMS_P2;Temp;Humidity;BMP_temperature;BMP_pressure;BME280_temperature;BME280_humidity;BME280_pressure;Samples;Min_cycle;Max_cycle;Signal;HPM_P1;HPM_P2
2024/04/27 00:00:30;;;;;;;12.73;11.90;;;4.40;85.90;;;;;;5455735;26;20260;-87
2024/04/27 00:02:56;;;;;;;13.77;12.77;;;4.40;85.80;;;;;;5455494;26;20263;-87
2024/04/27 00:05:22;;;;;;;12.60;11.80;;;4.30;85.70;;;;;;5423606;26;20224;-87
2024/04/27 00:07:47;;;;;;;13.10;12.30;;;4.30;85.60;;;;;;5455695;26;20216;-87
2024/04/27 00:10:13;;;;;;;14.13;13.13;;;4.30;85.40;;;;;;5455387;26;20770;-87
2024/04/27 00:12:40;;;;;;;25.27;23.73;;;4.40;85.40;;;;;;5423807;26;20235;-86
2024/04/27 00:15:06;;;;;;;25.07;23.40;;;4.40;85.30;;;;;;5455471;26;20208;-87
2024/04/27 00:17:31;;;;;;;22.33;20.93;;;4.30;85.40;;;;;;5455529;26;20267;-87
2024/04/27 00:19:59;;;;;;;26.20;24.43;;;4.30;85.60;;;;;;5423375;26;20232;-87
2024/04/27 00:22:25;;;;;;;26.47;24.87;;;4.30;85.70;;;;;;5423674;26;20283;-87
2024/04/27 00:24:50;;;;;;;24.17;22.67;;;4.20;85.60;;;;;;5455259;26;20208;-87
2024/04/27 00:27:16;;;;;;;25.57;23.97;;;4.20;85.50;;;;;;5455246;26;20700;-87
2024/04/27 00:29:41;;;;;;;26.47;24.73;;;4.10;85.40;;;;;;5455428;26;20268;-87
2024/04/27 00:32:10;;;;;;;26.67;24.97;;;4.10;85.50;;;;;;5454335;26;20220;-87
2024/04/27 00:34:36;;;;;;;26.53;24.73;;;4.10;85.40;;;;;;5423378;26;20216;-87
2024/04/27 00:37:01;;;;;;;25.30;23.67;;;4.10;85.30;;;;;;5423472;26;20220;-87
2024/04/27 00:39:27;;;;;;;25.13;23.53;;;4.10;85.20;;;;;;5423422;26;20712;-87
2024/04/27 00:41:53;;;;;;;26.40;24.80;;;4.10;85.30;;;;;;5423236;26;20271;-87
2024/04/27 00:44:18;;;;;;;24.90;23.30;;;4.00;85.40;;;;;;5454842;26;20696;-87
2024/04/27 00:46:44;;;;;;;24.97;23.37;;;4.00;85.60;;;;;;5454809;26;20208;-87
2024/04/27 00:49:10;;;;;;;23.63;22.13;;;4.00;85.80;;;;;;5455128;26;20208;-87
2024/04/27 00:51:38;;;;;;;22.47;21.03;;;4.10;86.00;;;;;;5454777;26;20293;-87
2024/04/27 00:54:05;;;;;;;23.20;21.70;;;4.10;86.30;;;;;;5454971;26;20212;-86
2024/04/27 00:56:30;;;;;;;23.50;22.00;;;4.20;86.60;;;;;;5455048;26;20224;-86
2024/04/27 00:58:56;;;;;;;22.70;21.20;;;4.10;86.60;;;;;;5423087;26;20220;-87
2024/04/27 01:01:22;;;;;;;24.37;22.67;;;4.10;86.80;;;;;;5454559;26;20308;-87
2024/04/27 01:03:47;;;;;;;22.23;20.80;;;4.10;87.10;;;;;;5454710;26;20267;-87
2024/04/27 01:06:13;;;;;;;21.57;20.17;;;4.20;87.20;;;;;;5454753;26;20252;-87
2024/04/27 01:08:49;;;;;;;22.43;20.83;;;4.10;87.40;;;;;;5454906;26;20216;-87
2024/04/27 01:11:15;;;;;;;23.13;21.53;;;4.10;87.60;;;;;;5454614;26;20271;-87
2024/04/27 01:13:41;;;;;;;22.60;20.73;;;4.00;87.80;;;;;;5455048;26;20219;-87
2024/04/27 01:16:06;;;;;;;20.03;18.53;;;4.00;88.00;;;;;;5454704;26;20216;-87
2024/04/27 01:18:35;;;;;;;20.73;19.23;;;4.10;88.20;;;;;;5454831;26;20258;-87
2024/04/27 01:21:01;;;;;;;22.70;21.00;;;4.10;88.40;;;;;;5454533;26;20262;-87
2024/04/27 01:23:26;;;;;;;20.03;18.63;;;4.10;88.50;;;;;;5422701;26;20220;-87
2024/04/27 01:25:52;;;;;;;18.53;17.23;;;4.00;88.70;;;;;;5454379;26;20250;-87
2024/04/27 01:28:17;;;;;;;19.73;18.33;;;4.00;88.80;;;;;;5454630;26;20224;-87
2024/04/27 01:30:43;;;;;;;18.97;17.70;;;3.90;88.70;;;;;;5454235;26;20232;-87
2024/04/27 01:33:08;;;;;;;19.37;18.07;;;3.90;88.80;;;;;;5454266;26;20616;-87
2024/04/27 01:35:34;;;;;;;19.07;17.70;;;3.80;88.90;;;;;;5454357;26;20223;-86
2024/04/27 01:37:59;;;;;;;11.47;10.43;;;3.80;89.00;;;;;;5454483;26;20266;-86
2024/04/27 01:40:25;;;;;;;12.43;11.07;;;3.80;89.10;;;;;;5454078;26;20645;-87
2024/04/27 01:42:50;;;;;;;15.17;11.50;;;3.80;89.30;;;;;;5452832;26;20560;-87
2024/04/27 01:45:16;;;;;;;12.33;11.23;;;3.80;89.60;;;;;;5454196;26;20228;-87
2024/04/27 01:47:41;;;;;;;12.37;11.27;;;3.80;89.80;;;;;;5453956;26;20219;-87
2024/04/27 01:50:07;;;;;;;12.77;11.67;;;3.80;90.00;;;;;;5422262;26;20699;-86
2024/04/27 01:52:32;;;;;;;12.20;11.20;;;3.80;90.00;;;;;;5454175;26;20266;-87
2024/04/27 01:54:58;;;;;;;12.40;11.33;;;3.80;90.20;;;;;;5453889;26;20250;-87
2024/04/27 01:57:24;;;;;;;12.60;11.50;;;3.80;90.30;;;;;;5453940;26;20626;-87
2024/04/27 01:59:49;;;;;;;12.57;11.47;;;3.70;90.20;;;;;;5454147;26;20705;-86
2024/04/27 02:02:14;;;;;;;12.30;11.23;;;3.70;90.40;;;;;;5422003;26;20270;-87
2024/04/27 02:04:40;;;;;;;12.57;11.47;;;3.70;90.60;;;;;;5454043;26;20219;-87
2024/04/27 02:07:05;;;;;;;12.87;11.67;;;3.70;90.70;;;;;;5453649;26;20699;-87
2024/04/27 02:09:31;;;;;;;11.43;10.33;;;3.70;90.70;;;;;;5453767;26;20219;-87
2024/04/27 02:11:56;;;;;;;11.63;10.63;;;3.80;90.80;;;;;;5453786;26;20235;-87
2024/04/27 02:14:22;;;;;;;12.17;11.07;;;3.70;90.70;;;;;;5422084;26;20223;-87
2024/04/27 02:19:32;;;;;;;12.93;11.80;;;3.70;90.60;;;;;;5455531;26;20198;-87
2024/04/27 02:21:57;;;;;;;12.57;11.33;;;3.70;90.70;;;;;;5453633;26;20278;-87
2024/04/27 02:24:23;;;;;;;13.03;11.83;;;3.70;90.70;;;;;;5421737;26;20251;-87
2024/04/27 02:26:48;;;;;;;15.07;13.53;;;3.70;90.90;;;;;;5453624;26;20224;-87
2024/04/27 02:29:14;;;;;;;16.33;13.67;;;3.80;91.10;;;;;;5421708;26;20231;-87
2024/04/27 02:31:40;;;;;;;15.07;13.67;;;3.90;91.10;;;;;;5453686;26;20228;-87
2024/04/27 02:34:05;;;;;;;15.53;13.97;;;3.90;91.20;;;;;;5453344;26;20247;-87
2024/04/27 02:36:31;;;;;;;17.73;14.27;;;3.90;91.20;;;;;;5453595;26;20216;-87
2024/04/27 02:38:56;;;;;;;13.70;12.13;;;3.80;91.30;;;;;;5421566;26;20223;-87
2024/04/27 02:41:22;;;;;;;12.43;11.17;;;3.80;91.40;;;;;;5453120;26;20259;-87
2024/04/27 02:43:47;;;;;;;14.50;13.10;;;3.80;91.40;;;;;;5421468;26;20250;-87
2024/04/27 02:46:13;;;;;;;19.87;18.27;;;3.70;91.50;;;;;;5421359;26;20263;-87
2024/04/27 02:48:38;;;;;;;22.37;20.43;;;3.70;91.60;;;;;;5453001;26;20227;-87
2024/04/27 02:51:04;;;;;;;21.93;20.07;;;3.80;91.70;;;;;;5452964;26;20227;-86
2024/04/27 02:53:30;;;;;;;19.97;18.37;;;3.80;91.70;;;;;;5453136;26;20259;-87
2024/04/27 02:55:55;;;;;;;23.83;21.67;;;3.80;91.50;;;;;;5456504;26;20215;-86
2024/04/27 02:58:21;;;;;;;24.67;22.37;;;3.80;91.50;;;;;;5456649;26;20326;-87
2024/04/27 03:00:53;;;;;;;23.33;21.17;;;3.70;91.40;;;;;;5456661;26;20259;-87
2024/04/27 03:03:19;;;;;;;24.53;22.23;;;3.70;91.40;;;;;;5456661;26;20272;-87
2024/04/27 03:05:45;;;;;;;23.67;21.67;;;3.80;91.50;;;;;;5456555;26;20726;-87
2024/04/27 03:08:10;;;;;;;27.37;24.63;;;3.90;91.40;;;;;;5424655;26;20242;-87
2024/04/27 03:10:36;;;;;;;27.73;25.03;;;3.80;91.30;;;;;;5456631;26;20268;-87
2024/04/27 03:13:02;;;;;;;26.77;24.23;;;3.80;91.40;;;;;;5424415;26;20304;-87
2024/04/27 03:15:27;;;;;;;26.90;24.17;;;3.90;91.40;;;;;;5456303;26;20689;-87
2024/04/27 03:17:53;;;;;;;30.33;26.57;;;3.90;91.60;;;;;;5456260;26;20718;-87
2024/04/27 03:20:19;;;;;;;27.30;24.50;;;4.00;91.70;;;;;;5456142;26;20276;-87
2024/04/27 03:22:44;;;;;;;28.57;25.07;;;4.10;91.70;;;;;;5456467;26;20237;-87
2024/04/27 03:25:13;;;;;;;29.90;26.43;;;4.10;91.80;;;;;;5456127;26;20700;-87
2024/04/27 03:27:41;;;;;;;28.00;25.20;;;4.10;91.80;;;;;;5424451;26;20243;-87
2024/04/27 03:30:08;;;;;;;29.60;26.40;;;4.20;92.00;;;;;;5456096;26;20262;-87
2024/04/27 03:32:34;;;;;;;32.77;27.20;;;4.20;92.10;;;;;;5456039;26;20216;-87
2024/04/27 03:34:59;;;;;;;33.73;27.87;;;4.30;92.10;;;;;;5456243;26;20567;-87
2024/04/27 03:37:25;;;;;;;30.77;27.50;;;4.30;92.20;;;;;;5456015;26;20216;-87
2024/04/27 03:39:50;;;;;;;30.17;26.93;;;4.30;92.20;;;;;;5424112;26;20825;-87
2024/04/27 03:42:16;;;;;;;31.03;27.73;;;4.30;92.20;;;;;;5423989;26;20240;-86
2024/04/27 03:44:42;;;;;;;33.53;27.17;;;4.40;92.30;;;;;;5456156;26;20220;-87
2024/04/27 03:47:07;;;;;;;33.20;27.43;;;4.50;92.50;;;;;;5456058;26;20262;-87
2024/04/27 03:49:33;;;;;;;30.40;26.83;;;4.60;92.50;;;;;;5424060;26;20256;-87
2024/04/27 03:51:58;;;;;;;35.07;28.87;;;4.60;92.50;;;;;;5455635;26;20231;-87
2024/04/27 03:54:24;;;;;;;34.97;28.70;;;4.60;92.40;;;;;;5455745;26;20254;-87
2024/04/27 03:56:50;;;;;;;36.23;28.77;;;4.60;92.50;;;;;;5455673;26;20216;-87
2024/04/27 03:59:17;;;;;;;35.37;28.60;;;4.60;92.40;;;;;;5455694;26;20247;-87
2024/04/27 04:01:44;;;;;;;31.67;25.07;;;4.60;92.40;;;;;;5455554;26;20583;-87
2024/04/27 04:04:10;;;;;;;33.63;24.97;;;4.50;92.40;;;;;;5455907;26;20227;-87
2024/04/27 04:06:36;;;;;;;34.10;24.83;;;4.60;92.50;;;;;;5455135;26;20218;-87
2024/04/27 04:09:02;;;;;;;31.23;25.17;;;4.60;92.60;;;;;;5423814;26;20722;-87
2024/04/27 04:11:28;;;;;;;30.27;23.27;;;4.60;92.60;;;;;;5455856;26;20228;-87
2024/04/27 04:13:54;;;;;;;30.70;23.03;;;4.70;92.70;;;;;;5423750;26;20732;-87
2024/04/27 04:16:20;;;;;;;29.67;23.00;;;4.60;92.60;;;;;;5455554;26;20262;-87
2024/04/27 04:18:46;;;;;;;31.90;25.27;;;4.60;92.60;;;;;;5455446;26;20212;-87
2024/04/27 04:21:12;;;;;;;28.93;22.87;;;4.60;92.70;;;;;;5455385;26;20232;-87
2024/04/27 04:23:37;;;;;;;32.77;24.50;;;4.70;92.80;;;;;;5455574;26;20224;-87
2024/04/27 04:26:04;;;;;;;38.80;26.70;;;4.70;92.70;;;;;;5455209;26;20275;-87
2024/04/27 04:28:30;;;;;;;36.90;26.93;;;4.80;92.80;;;;;;5455126;26;20696;-87
2024/04/27 04:30:55;;;;;;;40.57;27.10;;;4.80;92.70;;;;;;5455112;26;20336;-87
2024/04/27 04:33:21;;;;;;;38.77;27.73;;;4.90;92.80;;;;;;5423425;26;20572;-87
2024/04/27 04:35:46;;;;;;;43.70;29.37;;;4.90;92.80;;;;;;5455042;26;20250;-87
2024/04/27 04:38:12;;;;;;;38.67;28.03;;;5.00;92.90;;;;;;5423274;26;20220;-87
2024/04/27 04:40:38;;;;;;;40.73;28.97;;;5.20;93.00;;;;;;5423146;26;20275;-87
2024/04/27 04:43:06;;;;;;;48.03;30.43;;;5.20;93.00;;;;;;5455340;26;20312;-87
2024/04/27 04:45:36;;;;;;;47.97;30.87;;;5.30;93.10;;;;;;5455260;26;20560;-88
2024/04/27 04:48:01;;;;;;;48.03;32.50;;;5.50;93.20;;;;;;5423214;26;20219;-87
2024/04/27 04:50:27;;;;;;;51.10;31.67;;;5.50;93.20;;;;;;5423111;26;20274;-87
2024/04/27 04:52:53;;;;;;;47.37;31.57;;;5.60;93.20;;;;;;5423192;26;20603;-87
2024/04/27 04:55:18;;;;;;;52.00;32.67;;;5.60;93.20;;;;;;5454829;26;20716;-87
2024/04/27 04:57:44;;;;;;;49.87;32.77;;;5.70;93.20;;;;;;5455014;26;20212;-87
2024/04/27 05:00:10;;;;;;;51.90;33.97;;;5.70;93.20;;;;;;5423216;26;20251;-87
2024/04/27 05:02:35;;;;;;;55.57;33.60;;;5.70;93.20;;;;;;5454930;26;20238;-87
2024/04/27 05:05:02;;;;;;;53.77;34.33;;;5.80;93.20;;;;;;5455034;26;20259;-87
2024/04/27 05:07:27;;;;;;;57.97;37.40;;;5.80;93.30;;;;;;5454756;26;20704;-87
2024/04/27 05:09:53;;;;;;;58.30;34.37;;;5.90;93.30;;;;;;5422919;26;20312;-87
2024/04/27 05:12:19;;;;;;;59.00;35.60;;;6.00;93.40;;;;;;5454490;26;20235;-87
2024/04/27 05:14:44;;;;;;;60.10;36.47;;;6.10;93.40;;;;;;5454596;26;20560;-87
2024/04/27 05:17:10;;;;;;;61.30;37.73;;;6.10;93.40;;;;;;5454834;26;20216;-87
2024/04/27 05:19:35;;;;;;;55.87;37.43;;;6.20;93.50;;;;;;5454495;26;20208;-87
2024/04/27 05:22:01;;;;;;;57.57;38.30;;;6.20;93.50;;;;;;5454616;26;20255;-87
2024/04/27 05:24:26;;;;;;;69.80;39.77;;;6.30;93.50;;;;;;5454303;26;20267;-87
2024/04/27 05:26:52;;;;;;;59.90;36.17;;;6.40;93.60;;;;;;5454384;26;20297;-87
2024/04/27 05:29:17;;;;;;;66.37;39.00;;;6.40;93.60;;;;;;5422689;26;20238;-88
2024/04/27 05:31:43;;;;;;;62.50;38.57;;;6.60;93.60;;;;;;5422575;26;20243;-87
2024/04/27 05:34:08;;;;;;;67.77;39.93;;;6.70;93.60;;;;;;5454339;26;20213;-88
2024/04/27 05:36:34;;;;;;;62.87;41.33;;;6.80;93.60;;;;;;5454341;26;20695;-87
2024/04/27 05:38:59;;;;;;;62.63;40.43;;;6.80;93.50;;;;;;5454591;26;20218;-87
2024/04/27 05:41:25;;;;;;;58.30;38.27;;;6.80;93.50;;;;;;5454124;26;20236;-88
2024/04/27 05:43:50;;;;;;;61.87;39.63;;;6.80;93.40;;;;;;5454318;26;20258;-88
2024/04/27 05:46:16;;;;;;;62.33;37.53;;;6.90;93.40;;;;;;5454312;26;20216;-87
2024/04/27 05:48:41;;;;;;;58.43;38.83;;;7.00;93.40;;;;;;5422388;26;20220;-87
2024/04/27 05:51:07;;;;;;;74.37;41.50;;;7.10;93.40;;;;;;5454180;26;20247;-87
2024/04/27 05:53:33;;;;;;;69.40;43.63;;;7.20;93.50;;;;;;5454213;26;20212;-87
2024/04/27 05:55:58;;;;;;;63.53;42.27;;;7.40;93.50;;;;;;5454515;26;20560;-87
2024/04/27 05:58:24;;;;;;;72.53;43.30;;;7.50;93.60;;;;;;5454296;26;20213;-88
2024/04/27 06:00:49;;;;;;;65.90;42.13;;;7.70;93.50;;;;;;5422226;26;20263;-88
2024/04/27 06:03:15;;;;;;;60.70;39.93;;;7.80;93.50;;;;;;5453986;26;20262;-87
2024/04/27 06:05:41;;;;;;;65.77;43.10;;;7.90;93.50;;;;;;5454156;26;20258;-87
2024/04/27 06:08:13;;;;;;;60.60;41.07;;;7.90;93.40;;;;;;5422028;26;20220;-87
2024/04/27 06:10:38;;;;;;;62.87;42.77;;;8.00;93.30;;;;;;5422593;26;20255;-87
2024/04/27 06:13:04;;;;;;;60.57;42.47;;;8.10;93.10;;;;;;5422056;26;20224;-87
2024/04/27 06:15:29;;;;;;;58.80;40.67;;;8.10;93.00;;;;;;5453656;26;20216;-87
2024/04/27 06:17:55;;;;;;;60.87;40.70;;;8.10;92.80;;;;;;5454019;26;20212;-87
2024/04/27 06:20:21;;;;;;;57.23;40.93;;;8.30;92.80;;;;;;5421935;26;20236;-87
2024/04/27 06:22:46;;;;;;;59.80;42.00;;;8.40;92.80;;;;;;5453873;26;20546;-88
2024/04/27 06:25:12;;;;;;;58.17;40.97;;;8.50;92.70;;;;;;5453587;26;20313;-87
2024/04/27 06:27:41;;;;;;;57.80;40.23;;;8.50;92.60;;;;;;5453425;26;20238;-87
2024/04/27 06:30:09;;;;;;;59.90;40.57;;;8.60;92.30;;;;;;5421245;26;20220;-87
2024/04/27 06:32:34;;;;;;;57.87;38.70;;;8.60;92.10;;;;;;5421712;26;20216;-87
2024/04/27 06:35:01;;;;;;;59.80;40.27;;;8.70;91.80;;;;;;5453367;26;20254;-87
2024/04/27 06:37:27;;;;;;;53.50;39.40;;;8.80;91.60;;;;;;5453509;26;20216;-87
2024/04/27 06:39:52;;;;;;;50.90;38.70;;;8.80;91.30;;;;;;5453381;26;20803;-88
2024/04/27 06:42:19;;;;;;;54.63;39.07;;;8.90;91.20;;;;;;5453311;26;20223;-87
2024/04/27 06:44:45;;;;;;;58.37;38.93;;;9.10;91.20;;;;;;5453933;26;20319;-88
2024/04/27 06:47:11;;;;;;;50.50;37.63;;;9.20;91.10;;;;;;5421568;26;20223;-88
2024/04/27 06:49:36;;;;;;;54.57;39.37;;;9.30;90.70;;;;;;5421586;26;20222;-87
2024/04/27 06:52:03;;;;;;;47.50;37.03;;;9.40;90.40;;;;;;5453406;26;20243;-87
2024/04/27 06:54:29;;;;;;;50.47;37.83;;;9.50;90.20;;;;;;5453456;26;20548;-87
2024/04/27 06:56:55;;;;;;;48.43;35.00;;;9.70;89.90;;;;;;5453124;26;20255;-88
2024/04/27 06:59:20;;;;;;;46.90;34.40;;;9.80;89.50;;;;;;5453065;26;20216;-87
2024/04/27 07:01:46;;;;;;;43.83;33.37;;;10.00;89.40;;;;;;5421424;26;20231;-87
2024/04/27 07:04:14;;;;;;;40.70;33.77;;;9.80;88.50;;;;;;5453374;26;20213;-88
2024/04/27 07:06:40;;;;;;;40.63;32.63;;;10.00;88.40;;;;;;5421098;26;20251;-88
2024/04/27 07:09:05;;;;;;;46.50;33.60;;;10.20;87.70;;;;;;5421231;26;20705;-89
2024/04/27 07:11:32;;;;;;;44.33;33.97;;;10.30;87.30;;;;;;5421235;26;20236;-88
2024/04/27 07:13:59;;;;;;;42.47;31.23;;;10.40;86.60;;;;;;5452918;26;20354;-88
2024/04/27 07:16:28;;;;;;;43.97;32.77;;;10.50;86.30;;;;;;5421120;26;20216;-88
2024/04/27 07:18:54;;;;;;;39.20;31.27;;;10.60;85.70;;;;;;5421101;26;20223;-88
2024/04/27 07:21:20;;;;;;;39.60;31.20;;;10.70;85.30;;;;;;5421041;26;20236;-87
2024/04/27 07:23:45;;;;;;;35.20;28.83;;;10.80;85.00;;;;;;5452921;26;20780;-88
2024/04/27 07:26:11;;;;;;;36.60;29.13;;;11.00;84.40;;;;;;5452510;26;20216;-88
2024/04/27 07:28:37;;;;;;;37.70;29.67;;;11.10;83.90;;;;;;5420432;26;20256;-88
2024/04/27 07:31:06;;;;;;;34.07;28.63;;;11.20;83.50;;;;;;5420488;26;20579;-88
2024/04/27 07:33:31;;;;;;;34.90;27.37;;;11.30;82.60;;;;;;5452305;26;20742;-87
2024/04/27 07:35:57;;;;;;;36.03;29.13;;;11.40;82.60;;;;;;5421028;26;20216;-87
2024/04/27 07:38:22;;;;;;;30.63;26.43;;;11.50;82.50;;;;;;5452173;26;20212;-87
2024/04/27 07:40:48;;;;;;;32.80;26.63;;;11.60;81.70;;;;;;5452733;26;20248;-87
2024/04/27 07:43:13;;;;;;;31.93;28.13;;;11.70;80.80;;;;;;5424344;26;20220;-87
2024/04/27 07:45:39;;;;;;;31.77;25.60;;;11.80;80.70;;;;;;5456107;26;20246;-88
2024/04/27 07:48:09;;;;;;;32.03;25.57;;;12.00;80.60;;;;;;5455812;26;20228;-88
2024/04/27 07:50:35;;;;;;;28.60;24.33;;;12.20;80.40;;;;;;5423872;26;20293;-88
2024/04/27 07:53:02;;;;;;;28.20;25.13;;;12.10;79.50;;;;;;5455736;26;20208;-88
2024/04/27 07:55:28;;;;;;;26.63;23.87;;;12.00;78.40;;;;;;5455876;26;20712;-88
2024/04/27 07:57:55;;;;;;;27.27;24.40;;;12.20;79.00;;;;;;5424028;26;20564;-88
2024/04/27 08:00:20;;;;;;;25.93;23.33;;;12.40;77.60;;;;;;5455578;26;20216;-88
2024/04/27 08:02:46;;;;;;;26.47;23.70;;;12.60;77.90;;;;;;5455682;26;20216;-88
2024/04/27 08:05:12;;;;;;;25.83;23.47;;;12.60;77.70;;;;;;5424001;26;20220;-87
2024/04/27 08:07:38;;;;;;;26.57;22.70;;;12.80;75.90;;;;;;5423792;26;20255;-88
2024/04/27 08:10:04;;;;;;;26.17;23.63;;;12.90;75.80;;;;;;5423887;26;20552;-87
2024/04/27 08:12:32;;;;;;;26.77;23.97;;;12.60;74.70;;;;;;5455457;26;20259;-87
2024/04/27 08:15:00;;;;;;;27.17;24.57;;;12.80;75.60;;;;;;5423620;26;20228;-87
2024/04/27 08:17:26;;;;;;;28.93;25.37;;;12.80;75.30;;;;;;5455590;26;20301;-87
2024/04/27 08:19:52;;;;;;;26.90;24.40;;;12.80;74.90;;;;;;5455400;26;20220;-88
2024/04/27 08:22:17;;;;;;;27.93;25.03;;;12.80;75.50;;;;;;5423780;26;20232;-88
2024/04/27 08:24:43;;;;;;;28.27;25.27;;;12.90;75.70;;;;;;5455409;26;20208;-88
2024/04/27 08:27:08;;;;;;;28.10;25.17;;;13.00;75.00;;;;;;5455457;26;20228;-88
2024/04/27 08:29:34;;;;;;;27.30;24.70;;;12.90;75.20;;;;;;5455291;26;20216;-88
2024/04/27 08:31:59;;;;;;;28.20;25.27;;;13.00;75.60;;;;;;5423468;26;20275;-88
2024/04/27 08:34:25;;;;;;;29.63;26.53;;;13.10;75.30;;;;;;5455154;26;20212;-88
2024/04/27 08:36:50;;;;;;;28.20;25.50;;;13.10;74.20;;;;;;5423620;26;20251;-87
2024/04/27 08:39:16;;;;;;;28.37;25.47;;;13.20;74.70;;;;;;5423483;26;20730;-88
2024/04/27 08:41:47;;;;;;;28.52;25.83;;;13.30;75.00;;;;;;5455013;26;20228;-88
2024/04/27 08:44:14;;;;;;;28.67;25.63;;;13.50;74.50;;;;;;5455134;26;20203;-88
2024/04/27 08:46:40;;;;;;;28.20;25.00;;;13.50;73.80;;;;;;5455137;26;20209;-88
2024/04/27 08:49:06;;;;;;;30.77;24.00;;;13.70;74.10;;;;;;5455363;26;20263;-88
2024/04/27 08:51:33;;;;;;;28.75;25.90;;;13.70;74.60;;;;;;5454772;26;20348;-88
2024/04/27 08:54:00;;;;;;;27.90;25.15;;;13.80;73.40;;;;;;5454956;26;20279;-87
2024/04/27 08:56:26;;;;;;;26.02;23.45;;;13.90;73.50;;;;;;5454860;26;20220;-87
2024/04/27 08:58:52;;;;;;;27.70;25.02;;;13.90;72.90;;;;;;5455048;26;20217;-87
2024/04/27 09:01:18;;;;;;;28.02;25.20;;;13.80;71.50;;;;;;5423025;26;20236;-87
2024/04/27 09:03:44;;;;;;;32.58;29.73;;;13.80;73.50;;;;;;5454857;26;20255;-88
2024/04/27 09:06:10;;;;;;;35.55;32.55;;;14.10;74.20;;;;;;5454761;26;20212;-87
2024/04/27 09:08:35;;;;;;;35.87;32.53;;;14.20;73.00;;;;;;5422806;26;20220;-87
2024/04/27 09:11:01;;;;;;;35.70;32.97;;;14.30;72.60;;;;;;5454744;26;20309;-87
2024/04/27 09:13:28;;;;;;;35.63;32.78;;;14.30;73.40;;;;;;5454598;26;20636;-87
2024/04/27 09:15:54;;;;;;;34.42;31.55;;;14.50;71.80;;;;;;5454612;26;20208;-87
2024/04/27 09:18:19;;;;;;;32.95;30.17;;;14.70;71.80;;;;;;5454958;26;20216;-89
2024/04/27 09:20:45;;;;;;;30.30;27.65;;;14.80;71.10;;;;;;5454528;26;20248;-87
2024/04/27 09:23:12;;;;;;;28.70;26.00;;;14.80;70.60;;;;;;5454594;26;20185;-87
2024/04/27 09:25:47;;;;;;;29.88;27.25;;;14.80;71.30;;;;;;5454743;26;20288;-88
2024/04/27 09:28:13;;;;;;;32.15;29.45;;;15.00;70.90;;;;;;5454991;26;20676;-89
2024/04/27 09:30:39;;;;;;;30.15;27.50;;;15.20;70.10;;;;;;5454737;26;20258;-87
2024/04/27 09:33:04;;;;;;;32.65;29.95;;;15.20;69.80;;;;;;5454504;26;20274;-88
2024/04/27 09:35:30;;;;;;;32.85;30.27;;;15.30;69.00;;;;;;5422800;26;20224;-87
2024/04/27 09:38:06;;;;;;;32.88;30.05;;;15.30;69.10;;;;;;5456181;26;20258;-86
2024/04/27 09:40:34;;;;;;;37.03;34.10;;;15.40;69.80;;;;;;5426280;26;20243;-86
2024/04/27 09:43:24;;;;;;;36.05;33.22;;;15.30;68.30;;;;;;5457519;26;20239;-86
2024/04/27 09:46:02;;;;;;;24.15;21.80;;;15.40;67.70;;;;;;5424856;26;20294;-86
2024/04/27 09:48:32;;;;;;;24.20;21.83;;;15.60;69.40;;;;;;5458960;26;20200;-86
2024/04/27 09:51:07;;;;;;;23.98;21.80;;;15.60;66.90;;;;;;5459110;26;20251;-86
2024/04/27 09:53:34;;;;;;;23.15;20.90;;;15.60;66.80;;;;;;5457781;26;20251;-86
2024/04/27 09:56:00;;;;;;;23.10;20.85;;;15.80;68.20;;;;;;5459096;26;20705;-86
2024/04/27 09:58:26;;;;;;;23.08;20.88;;;15.90;66.60;;;;;;5458478;26;20253;-86
2024/04/27 10:00:53;;;;;;;21.83;19.85;;;15.90;67.00;;;;;;5425762;26;20292;-86
2024/04/27 10:03:19;;;;;;;22.25;20.45;;;16.00;65.70;;;;;;5455875;26;20263;-86
2024/04/27 10:05:45;;;;;;;22.90;21.10;;;16.20;66.40;;;;;;5424745;26;20734;-86
2024/04/27 10:08:21;;;;;;;21.90;20.10;;;16.20;64.80;;;;;;5458188;26;20212;-86
2024/04/27 10:10:47;;;;;;;21.35;19.55;;;16.30;65.90;;;;;;5457168;26;20251;-86
2024/04/27 10:13:13;;;;;;;22.25;20.25;;;16.50;67.30;;;;;;5457398;26;20212;-86
2024/04/27 10:15:38;;;;;;;21.63;20.02;;;16.50;64.60;;;;;;5458154;26;20259;-86
2024/04/27 10:18:04;;;;;;;22.60;20.73;;;16.60;64.40;;;;;;5456771;26;20216;-86
2024/04/27 10:20:43;;;;;;;22.13;20.40;;;16.30;62.90;;;;;;5424219;26;20236;-86
2024/04/27 10:23:15;;;;;;;22.65;20.85;;;16.20;64.70;;;;;;5453968;26;20208;-87
2024/04/27 10:25:48;;;;;;;23.13;21.30;;;16.40;65.00;;;;;;5453816;26;20279;-86
2024/04/27 10:28:14;;;;;;;23.33;21.35;;;16.40;63.00;;;;;;5453606;26;20746;-86
2024/04/27 10:30:40;;;;;;;22.65;20.85;;;16.20;62.40;;;;;;5453736;26;20228;-86
2024/04/27 10:33:11;;;;;;;22.55;20.75;;;16.30;62.10;;;;;;5453320;26;20212;-86
2024/04/27 10:35:37;;;;;;;23.05;21.25;;;16.70;60.90;;;;;;5421696;26;20252;-86
2024/04/27 10:38:03;;;;;;;22.75;21.02;;;16.80;60.70;;;;;;5421649;26;20250;-86
2024/04/27 10:40:29;;;;;;;24.63;22.63;;;16.50;60.40;;;;;;5453398;26;20224;-85
2024/04/27 10:42:55;;;;;;;24.40;22.48;;;16.60;60.60;;;;;;5453556;26;20217;-86
2024/04/27 10:45:21;;;;;;;28.30;25.63;;;16.50;60.10;;;;;;5453152;26;20220;-86
2024/04/27 10:47:46;;;;;;;28.00;25.30;;;16.70;59.80;;;;;;5453377;26;20321;-86
2024/04/27 10:50:12;;;;;;;23.77;21.77;;;16.80;58.70;;;;;;5453442;26;20276;-86
2024/04/27 10:52:39;;;;;;;25.95;23.65;;;17.00;58.80;;;;;;5453410;26;20220;-86
2024/04/27 10:55:05;;;;;;;24.65;22.58;;;17.10;56.80;;;;;;5453371;26;20258;-86
2024/04/27 10:57:32;;;;;;;24.00;21.98;;;16.80;57.40;;;;;;5421756;26;20228;-86
2024/04/27 10:59:58;;;;;;;23.38;21.65;;;16.80;58.90;;;;;;5423828;26;20228;-86
2024/04/27 11:02:31;;;;;;;23.60;21.67;;;16.90;58.50;;;;;;5423182;26;20236;-86
2024/04/27 11:04:58;;;;;;;23.20;21.50;;;16.90;57.10;;;;;;5423367;26;20216;-86
2024/04/27 11:07:24;;;;;;;22.67;20.98;;;17.00;58.90;;;;;;5454676;26;20345;-86
2024/04/27 11:09:50;;;;;;;23.58;21.77;;;17.20;56.80;;;;;;5422770;26;20570;-86
2024/04/27 11:12:18;;;;;;;23.25;21.38;;;17.40;57.00;;;;;;5454103;26;20651;-86
2024/04/27 11:14:44;;;;;;;23.17;21.50;;;17.30;59.00;;;;;;5456260;26;20209;-86
2024/04/27 11:17:10;;;;;;;23.85;21.92;;;17.20;57.50;;;;;;5460517;26;20688;-86
2024/04/27 11:19:35;;;;;;;23.33;21.50;;;17.20;56.80;;;;;;5427593;26;20242;-86
2024/04/27 11:22:06;;;;;;;23.52;21.73;;;17.70;57.60;;;;;;5458756;26;20232;-86
2024/04/27 11:24:33;;;;;;;27.58;24.98;;;18.00;58.30;;;;;;5458896;26;20235;-86
2024/04/27 11:26:59;;;;;;;25.27;23.08;;;17.90;54.70;;;;;;5458313;26;20267;-86
2024/04/27 11:29:24;;;;;;;26.88;24.20;;;17.80;56.00;;;;;;5458705;26;20217;-86
2024/04/27 11:31:50;;;;;;;24.20;22.27;;;17.90;53.60;;;;;;5459356;26;20312;-86
2024/04/27 11:34:16;;;;;;;27.38;24.85;;;17.60;57.30;;;;;;5458723;26;20216;-86
2024/04/27 11:36:46;;;;;;;23.08;21.30;;;17.80;56.00;;;;;;5458604;26;20228;-86
2024/04/27 11:39:13;;;;;;;25.15;23.17;;;17.70;57.80;;;;;;5458288;26;20688;-86
2024/04/27 11:41:41;;;;;;;23.27;21.55;;;17.70;57.30;;;;;;5458342;26;20571;-86
2024/04/27 11:44:07;;;;;;;24.88;22.58;;;17.50;57.90;;;;;;5458115;26;20224;-86
2024/04/27 11:46:33;;;;;;;23.50;21.40;;;17.80;58.10;;;;;;5458269;26;20258;-86
2024/04/27 11:49:01;;;;;;;25.27;23.10;;;18.20;55.00;;;;;;5425985;26;20641;-86
2024/04/27 11:51:26;;;;;;;23.92;22.13;;;18.20;55.50;;;;;;5457753;26;20732;-86
2024/04/27 11:53:52;;;;;;;24.23;22.33;;;18.20;56.00;;;;;;5426524;26;20216;-86
2024/04/27 11:56:17;;;;;;;23.02;21.33;;;18.40;55.10;;;;;;5458081;26;20212;-86
2024/04/27 11:58:43;;;;;;;24.45;22.35;;;18.20;54.40;;;;;;5457009;26;20208;-86
2024/04/27 12:01:09;;;;;;;23.15;21.45;;;18.20;53.80;;;;;;5457106;26;20229;-86
2024/04/27 12:03:34;;;;;;;23.33;21.63;;;18.10;55.30;;;;;;5425332;26;20730;-86
2024/04/27 12:06:00;;;;;;;23.90;22.00;;;18.10;53.20;;;;;;5456654;26;20242;-86
2024/04/27 12:08:25;;;;;;;23.77;22.05;;;18.10;54.00;;;;;;5456936;26;20212;-86
2024/04/27 12:10:51;;;;;;;24.20;22.20;;;17.80;54.60;;;;;;5457656;26;20220;-86
2024/04/27 12:13:16;;;;;;;22.83;21.13;;;17.70;55.80;;;;;;5425555;26;20224;-86
2024/04/27 12:15:42;;;;;;;23.50;21.58;;;17.80;55.40;;;;;;5456908;26;20208;-86
2024/04/27 12:18:08;;;;;;;23.23;21.55;;;18.10;54.50;;;;;;5456929;26;20208;-86
2024/04/27 12:20:34;;;;;;;23.42;21.70;;;18.00;54.20;;;;;;5457136;26;20274;-86
2024/04/27 12:23:00;;;;;;;25.60;23.25;;;17.80;54.30;;;;;;5456821;26;20216;-86
2024/04/27 12:25:25;;;;;;;26.80;24.30;;;17.90;55.60;;;;;;5456265;26;20255;-86
2024/04/27 12:27:51;;;;;;;24.77;22.77;;;18.10;54.90;;;;;;5423719;26;20296;-86
2024/04/27 12:30:17;;;;;;;23.80;21.90;;;18.00;55.20;;;;;;5456063;26;20220;-86